Time;durP1;ratioP1;P1;durP2;ratioP2;P2;SDS_P1;SDS_P2;PMS_P1;PMS_P2;Temp;Humidity;BMP_temperature;BMP_pressure;BME280_temperature;BME280_humidity;BME280_pressure;Samples;Min_cycle;Max_cycle;Signal;HPM_P1;HPM_P2
2024/01/29 00:01:12;;;;;;;2.53;1.90;;;3.40;99.90;;;;;;5023953;28;20309;-72
2024/01/29 00:03:38;;;;;;;4.13;2.15;;;3.40;99.90;;;;;;5036982;28;20049;-72
2024/01/29 00:06:03;;;;;;;2.20;1.63;;;3.40;99.90;;;;;;5035988;28;20652;-72
2024/01/29 00:08:29;;;;;;;5.78;2.03;;;3.40;99.90;;;;;;5051437;28;20134;-72
2024/01/29 00:10:55;;;;;;;3.00;1.52;;;3.40;99.90;;;;;;5021043;28;20037;-72
2024/01/29 00:13:20;;;;;;;2.78;1.83;;;3.40;99.90;;;;;;5035493;28;20041;-72
2024/01/29 00:15:46;;;;;;;2.75;1.60;;;3.30;99.90;;;;;;5052451;28;20087;-72
2024/01/29 00:18:12;;;;;;;6.35;2.88;;;3.20;99.90;;;;;;5018807;28;20037;-72
2024/01/29 00:20:37;;;;;;;4.45;1.50;;;3.20;99.90;;;;;;5051035;28;20049;-72
2024/01/29 00:23:03;;;;;;;5.80;2.15;;;3.20;99.90;;;;;;5050278;28;20381;-72
2024/01/29 00:25:29;;;;;;;2.92;1.55;;;3.10;99.90;;;;;;5052278;28;20411;-72
2024/01/29 00:27:55;;;;;;;7.75;2.17;;;3.00;99.90;;;;;;5017845;28;20045;-72
2024/01/29 00:30:21;;;;;;;4.18;1.70;;;3.00;99.90;;;;;;5053064;28;20041;-72
2024/01/29 00:32:46;;;;;;;2.67;1.50;;;3.00;99.90;;;;;;5053769;28;20067;-72
2024/01/29 00:35:12;;;;;;;3.80;2.20;;;3.00;99.90;;;;;;5054919;28;20048;-72
2024/01/29 00:37:38;;;;;;;5.28;2.60;;;3.00;99.90;;;;;;5047971;28;20050;-72
2024/01/29 00:40:04;;;;;;;3.80;1.92;;;2.90;99.90;;;;;;5035124;28;20073;-72
2024/01/29 00:42:30;;;;;;;3.97;1.83;;;2.90;99.90;;;;;;5034659;28;20049;-72
2024/01/29 00:44:56;;;;;;;4.05;1.42;;;2.90;99.90;;;;;;5037344;28;20075;-73
2024/01/29 00:47:22;;;;;;;2.05;1.73;;;3.00;99.90;;;;;;5023341;28;20045;-72
2024/01/29 00:49:48;;;;;;;2.72;1.92;;;3.00;99.90;;;;;;5082968;28;20586;-72
2024/01/29 00:52:14;;;;;;;8.73;1.40;;;3.20;99.90;;;;;;5072743;28;20049;-72
2024/01/29 00:54:40;;;;;;;5.00;2.20;;;3.30;99.90;;;;;;5047203;28;20079;-72
2024/01/29 00:57:05;;;;;;;9.20;1.85;;;3.30;99.90;;;;;;5098546;28;20041;-72
2024/01/29 00:59:31;;;;;;;1.25;0.88;;;3.20;99.90;;;;;;5047900;28;20069;-72
2024/01/29 01:01:57;;;;;;;3.78;1.60;;;3.20;99.90;;;;;;5047024;28;20065;-72
2024/01/29 01:04:23;;;;;;;4.85;1.70;;;3.20;99.90;;;;;;5057406;28;20120;-72
2024/01/29 01:06:49;;;;;;;2.95;1.60;;;3.10;99.90;;;;;;5091783;28;20054;-72
2024/01/29 01:09:14;;;;;;;6.88;1.70;;;3.10;99.90;;;;;;5047568;28;20385;-72
2024/01/29 01:11:43;;;;;;;4.53;1.63;;;3.10;99.90;;;;;;5032724;28;20579;-72
2024/01/29 01:14:09;;;;;;;3.42;1.52;;;3.10;99.90;;;;;;5057713;28;20058;-72
2024/01/29 01:16:35;;;;;;;2.63;1.25;;;3.00;99.90;;;;;;5068455;28;20198;-72
2024/01/29 01:19:00;;;;;;;1.55;1.45;;;3.00;99.90;;;;;;5077260;28;20043;-72
2024/01/29 01:21:26;;;;;;;3.30;1.77;;;3.00;99.90;;;;;;5047652;28;20051;-72
2024/01/29 01:23:51;;;;;;;2.58;1.95;;;3.00;99.90;;;;;;5084921;28;20387;-72
2024/01/29 01:26:17;;;;;;;2.58;2.00;;;3.00;99.90;;;;;;5023491;28;20049;-72
2024/01/29 01:28:43;;;;;;;2.70;1.92;;;3.00;99.90;;;;;;5046281;28;20045;-72
2024/01/29 01:31:08;;;;;;;3.63;2.15;;;2.90;99.90;;;;;;5052937;28;20044;-72
2024/01/29 01:33:34;;;;;;;3.20;1.85;;;2.90;99.90;;;;;;5037058;28;20134;-72
2024/01/29 01:36:00;;;;;;;5.07;1.58;;;2.90;99.90;;;;;;5044073;28;20083;-72
2024/01/29 01:38:25;;;;;;;3.47;2.25;;;2.80;99.90;;;;;;5047516;28;20056;-72
2024/01/29 01:40:51;;;;;;;5.28;1.83;;;2.80;99.90;;;;;;5055690;28;20063;-72
2024/01/29 01:43:23;;;;;;;1.73;1.58;;;2.80;99.90;;;;;;5081297;28;20506;-72
2024/01/29 01:46:22;;;;;;;4.05;1.83;;;2.70;99.90;;;;;;5061323;28;20043;-72
2024/01/29 01:48:53;;;;;;;1.98;1.35;;;2.70;99.90;;;;;;5042405;28;20049;-72
2024/01/29 01:51:22;;;;;;;3.17;1.83;;;2.70;99.90;;;;;;5067710;28;20088;-72
2024/01/29 01:53:54;;;;;;;2.80;1.92;;;2.70;99.90;;;;;;5049527;28;20040;-72
2024/01/29 01:56:20;;;;;;;9.07;1.50;;;2.70;99.90;;;;;;5038505;28;20052;-72
2024/01/29 01:58:46;;;;;;;2.08;1.58;;;2.70;99.90;;;;;;5064103;28;20353;-73
2024/01/29 02:01:14;;;;;;;1.55;1.20;;;2.80;99.90;;;;;;5080128;28;20499;-72
2024/01/29 02:03:40;;;;;;;4.75;2.20;;;2.80;99.90;;;;;;5069610;28;20045;-72
2024/01/29 02:06:07;;;;;;;7.07;2.17;;;2.90;99.90;;;;;;5044079;28;20049;-72
2024/01/29 02:08:33;;;;;;;2.17;1.27;;;3.00;99.90;;;;;;5050804;28;20076;-72
2024/01/29 02:11:00;;;;;;;3.38;1.55;;;3.00;99.90;;;;;;5057583;28;20044;-72
2024/01/29 02:13:26;;;;;;;1.63;1.27;;;3.10;99.90;;;;;;5033704;28;20047;-72
2024/01/29 02:15:52;;;;;;;7.13;2.85;;;3.10;99.90;;;;;;5054787;28;20084;-72
2024/01/29 02:18:17;;;;;;;2.15;1.65;;;3.10;99.90;;;;;;5082959;28;20527;-72
2024/01/29 02:20:43;;;;;;;2.33;1.20;;;3.20;99.90;;;;;;5070847;28;20500;-72
2024/01/29 02:23:09;;;;;;;1.65;1.45;;;3.30;99.90;;;;;;5031911;28;20040;-72
2024/01/29 02:25:35;;;;;;;7.15;1.85;;;3.30;99.90;;;;;;5065066;28;20045;-72
2024/01/29 02:28:01;;;;;;;3.65;1.60;;;3.40;99.90;;;;;;5056648;28;20095;-72
2024/01/29 02:30:26;;;;;;;3.42;1.77;;;3.40;99.90;;;;;;5042845;28;20558;-72
2024/01/29 02:32:52;;;;;;;2.95;2.00;;;3.40;99.90;;;;;;5068893;28;20082;-72
2024/01/29 02:35:18;;;;;;;4.28;1.33;;;3.40;99.90;;;;;;5048905;28;20476;-72
2024/01/29 02:37:43;;;;;;;3.40;1.65;;;3.40;99.90;;;;;;5032806;28;20049;-72
2024/01/29 02:40:10;;;;;;;4.15;2.83;;;3.50;99.90;;;;;;5027718;28;20060;-72
2024/01/29 02:42:36;;;;;;;3.30;2.00;;;3.50;99.90;;;;;;5041421;28;20064;-72
2024/01/29 02:45:03;;;;;;;2.72;1.40;;;3.60;99.90;;;;;;5070579;28;20057;-72
2024/01/29 02:47:29;;;;;;;5.13;2.22;;;3.60;99.90;;;;;;5077000;28;20049;-72
2024/01/29 02:49:54;;;;;;;2.30;1.20;;;3.50;99.90;;;;;;5064956;28;20043;-72
2024/01/29 02:52:20;;;;;;;2.08;1.80;;;3.40;99.90;;;;;;5035875;28;20053;-72
2024/01/29 02:54:47;;;;;;;5.15;1.85;;;3.40;99.90;;;;;;5033620;28;20052;-72
2024/01/29 02:57:12;;;;;;;3.20;1.67;;;3.40;99.90;;;;;;5073882;28;20535;-72
2024/01/29 02:59:38;;;;;;;4.10;2.10;;;3.40;99.90;;;;;;5040786;28;20047;-73
2024/01/29 03:02:06;;;;;;;2.58;1.42;;;3.30;99.90;;;;;;5051239;28;20044;-72
2024/01/29 03:04:32;;;;;;;4.68;1.90;;;3.30;99.90;;;;;;5038375;28;20056;-72
2024/01/29 03:06:57;;;;;;;4.75;2.35;;;3.30;99.90;;;;;;5083850;28;20049;-72
2024/01/29 03:09:23;;;;;;;2.90;1.75;;;3.20;99.90;;;;;;5055885;28;20144;-72
2024/01/29 03:11:49;;;;;;;6.88;2.60;;;3.20;99.90;;;;;;5025174;28;20071;-72
2024/01/29 03:14:15;;;;;;;6.65;1.95;;;3.20;99.90;;;;;;5047295;28;20137;-72
2024/01/29 03:16:40;;;;;;;4.30;2.35;;;3.20;99.90;;;;;;5065563;28;20056;-72
2024/01/29 03:19:07;;;;;;;5.05;1.90;;;3.20;99.90;;;;;;5034012;28;20122;-72
2024/01/29 03:21:33;;;;;;;3.13;2.10;;;3.20;99.90;;;;;;5046490;28;20060;-72
2024/01/29 03:23:59;;;;;;;3.28;2.08;;;3.10;99.90;;;;;;5052262;28;20032;-72
2024/01/29 03:26:25;;;;;;;7.47;2.30;;;3.00;99.90;;;;;;5045374;28;20088;-72
2024/01/29 03:28:50;;;;;;;2.35;1.60;;;3.00;99.90;;;;;;5034974;28;20044;-72
2024/01/29 03:31:16;;;;;;;3.70;1.58;;;3.00;99.90;;;;;;5072925;28;20086;-72
2024/01/29 03:33:42;;;;;;;3.42;2.13;;;2.90;99.90;;;;;;5068630;28;20059;-72
2024/01/29 03:36:08;;;;;;;3.25;1.65;;;2.90;99.90;;;;;;5053193;28;20092;-72
2024/01/29 03:38:34;;;;;;;3.35;1.95;;;2.90;99.90;;;;;;5040793;28;20421;-72
2024/01/29 03:41:00;;;;;;;2.33;1.75;;;2.80;99.90;;;;;;5056490;28;20040;-72
2024/01/29 03:43:26;;;;;;;11.35;3.15;;;2.80;99.90;;;;;;5065011;28;20381;-72
2024/01/29 03:45:53;;;;;;;4.10;1.80;;;2.70;99.90;;;;;;5071314;28;20051;-72
2024/01/29 03:48:19;;;;;;;6.07;1.95;;;2.70;99.90;;;;;;5082430;28;20642;-72
2024/01/29 03:50:45;;;;;;;3.35;2.15;;;2.60;99.90;;;;;;5054809;28;20044;-72
2024/01/29 03:53:10;;;;;;;5.47;1.52;;;2.70;99.90;;;;;;5045288;28;20036;-72
2024/01/29 03:55:36;;;;;;;3.22;1.58;;;2.70;99.90;;;;;;5049268;28;20045;-72
2024/01/29 03:58:02;;;;;;;3.78;2.10;;;2.70;99.90;;;;;;5030555;28;20083;-72
2024/01/29 04:00:29;;;;;;;3.05;1.77;;;2.70;99.90;;;;;;5033497;28;20040;-72
2024/01/29 04:02:55;;;;;;;2.53;1.77;;;2.80;99.90;;;;;;5040572;28;20048;-72
2024/01/29 04:05:21;;;;;;;3.75;2.22;;;2.80;99.90;;;;;;5055757;28;20041;-72
2024/01/29 04:07:49;;;;;;;4.03;2.03;;;2.90;99.90;;;;;;5035098;28;20099;-72
2024/01/29 04:10:18;;;;;;;3.95;1.48;;;2.90;99.90;;;;;;5040391;28;20060;-72
2024/01/29 04:12:44;;;;;;;4.38;1.75;;;3.00;99.90;;;;;;5053964;28;20037;-72
2024/01/29 04:15:10;;;;;;;3.00;1.95;;;3.00;99.90;;;;;;5056821;28;20041;-72
2024/01/29 04:17:36;;;;;;;5.60;2.95;;;3.00;99.90;;;;;;5058103;28;20044;-72
2024/01/29 04:20:05;;;;;;;3.63;2.38;;;3.00;99.90;;;;;;5076515;28;20137;-72
2024/01/29 04:22:32;;;;;;;4.32;3.22;;;3.00;99.90;;;;;;5053944;28;20132;-72
2024/01/29 04:25:06;;;;;;;6.70;2.35;;;3.00;99.90;;;;;;5030841;28;20033;-72
2024/01/29 04:27:33;;;;;;;4.40;2.45;;;2.90;99.90;;;;;;5054476;28;20454;-72
2024/01/29 04:30:00;;;;;;;3.65;2.25;;;3.00;99.90;;;;;;5059076;28;20044;-72
2024/01/29 04:32:26;;;;;;;3.17;1.95;;;3.00;99.90;;;;;;5074615;28;20071;-72
2024/01/29 04:34:52;;;;;;;8.70;2.00;;;3.00;99.90;;;;;;5050670;28;20046;-72
2024/01/29 04:37:18;;;;;;;5.25;2.45;;;2.90;99.90;;;;;;5072856;28;20098;-72
2024/01/29 04:39:43;;;;;;;2.17;1.55;;;2.90;99.90;;;;;;5072215;28;20071;-72
2024/01/29 04:42:09;;;;;;;3.53;2.28;;;2.90;99.90;;;;;;5070101;28;20036;-72
2024/01/29 04:44:35;;;;;;;7.25;2.55;;;2.90;99.90;;;;;;5063218;28;20080;-72
2024/01/29 04:47:01;;;;;;;3.13;1.77;;;2.80;99.90;;;;;;5094202;28;20151;-72
2024/01/29 04:49:26;;;;;;;7.18;1.98;;;2.80;99.90;;;;;;5069550;28;20066;-72
2024/01/29 04:51:52;;;;;;;4.22;1.88;;;2.80;99.90;;;;;;5093970;28;20033;-72
2024/01/29 04:54:18;;;;;;;3.78;2.28;;;2.70;99.90;;;;;;5077239;28;20129;-72
2024/01/29 04:56:43;;;;;;;6.10;2.38;;;2.70;99.90;;;;;;5044600;28;20068;-72
2024/01/29 04:59:09;;;;;;;3.05;1.98;;;2.70;99.90;;;;;;5050488;28;20040;-72
2024/01/29 05:01:35;;;;;;;3.95;2.17;;;2.70;99.90;;;;;;5043917;28;20047;-72
2024/01/29 05:04:01;;;;;;;4.63;2.25;;;2.70;99.90;;;;;;5060421;28;20040;-72
2024/01/29 05:06:26;;;;;;;3.92;2.03;;;2.60;99.90;;;;;;5094776;28;20037;-72
2024/01/29 05:08:52;;;;;;;2.75;1.88;;;2.60;99.90;;;;;;5054818;28;20136;-73
2024/01/29 05:11:18;;;;;;;8.80;2.38;;;2.60;99.90;;;;;;5044286;28;20032;-72
2024/01/29 05:13:44;;;;;;;3.25;1.83;;;2.60;99.90;;;;;;5031088;28;20069;-72
2024/01/29 05:16:13;;;;;;;5.53;2.38;;;2.60;99.90;;;;;;5067967;28;20041;-72
2024/01/29 05:18:39;;;;;;;3.53;1.70;;;2.60;99.90;;;;;;5016196;28;20101;-72
2024/01/29 05:21:06;;;;;;;6.95;2.13;;;2.60;99.90;;;;;;5047615;28;20072;-72
2024/01/29 05:23:31;;;;;;;2.60;1.85;;;2.60;99.90;;;;;;5021893;28;20046;-72
2024/01/29 05:25:57;;;;;;;2.88;1.98;;;2.70;99.90;;;;;;5050452;28;20087;-72
2024/01/29 05:28:23;;;;;;;7.07;3.22;;;2.90;99.90;;;;;;5065529;28;20037;-72
2024/01/29 05:30:51;;;;;;;6.70;2.47;;;3.00;99.90;;;;;;5059214;28;20044;-73
2024/01/29 05:33:17;;;;;;;3.00;1.95;;;3.00;99.90;;;;;;5058735;28;20041;-72
2024/01/29 05:35:43;;;;;;;4.90;2.17;;;3.10;99.90;;;;;;5032975;28;20112;-72
2024/01/29 05:38:09;;;;;;;3.70;1.70;;;3.10;99.90;;;;;;5064043;28;20429;-72
2024/01/29 05:40:34;;;;;;;3.88;2.47;;;3.10;99.90;;;;;;5071636;28;20060;-72
2024/01/29 05:43:00;;;;;;;4.10;1.98;;;3.20;99.90;;;;;;5076686;28;20135;-72
2024/01/29 05:45:26;;;;;;;3.83;2.35;;;3.10;99.90;;;;;;5064263;28;20032;-72
2024/01/29 05:47:51;;;;;;;3.80;2.20;;;3.10;99.90;;;;;;5063867;28;20074;-72
2024/01/29 05:50:17;;;;;;;4.47;2.30;;;3.00;99.90;;;;;;5093081;28;20037;-72
2024/01/29 05:52:43;;;;;;;3.30;2.58;;;3.10;99.90;;;;;;5044098;28;20044;-72
2024/01/29 05:55:09;;;;;;;5.25;2.90;;;3.10;99.90;;;;;;5061566;28;20041;-72
2024/01/29 05:57:35;;;;;;;5.53;2.45;;;3.10;99.90;;;;;;5064281;28;20037;-72
2024/01/29 06:00:03;;;;;;;6.05;2.10;;;3.10;99.90;;;;;;5047281;28;20478;-73
2024/01/29 06:02:28;;;;;;;2.05;1.77;;;3.10;99.90;;;;;;5039054;28;20045;-72
2024/01/29 06:04:54;;;;;;;3.72;2.28;;;3.00;99.90;;;;;;5096972;28;20047;-73
2024/01/29 06:07:20;;;;;;;4.65;3.08;;;3.10;99.90;;;;;;5043773;28;20339;-72
2024/01/29 06:09:45;;;;;;;5.72;3.25;;;3.00;99.90;;;;;;5052320;28;20090;-72
2024/01/29 06:12:11;;;;;;;4.60;2.08;;;2.90;99.90;;;;;;5066675;28;20042;-73
2024/01/29 06:14:37;;;;;;;6.47;2.53;;;3.00;99.90;;;;;;5064090;28;20053;-72
2024/01/29 06:17:02;;;;;;;6.50;2.58;;;3.00;99.90;;;;;;5063001;28;20032;-72
2024/01/29 06:19:30;;;;;;;7.40;2.95;;;3.00;99.90;;;;;;5063988;28;20039;-72
2024/01/29 06:21:55;;;;;;;3.55;2.30;;;3.00;99.90;;;;;;5027303;28;20037;-72
2024/01/29 06:24:21;;;;;;;9.07;3.05;;;3.00;99.90;;;;;;5037635;28;20083;-72
2024/01/29 06:26:47;;;;;;;2.67;1.92;;;3.10;99.90;;;;;;5038402;28;20080;-72
2024/01/29 06:29:12;;;;;;;5.82;2.60;;;3.00;99.90;;;;;;5071224;28;20060;-73
2024/01/29 06:31:40;;;;;;;4.88;2.75;;;3.10;99.90;;;;;;5013998;28;20083;-72
2024/01/29 06:34:06;;;;;;;2.95;2.20;;;3.10;99.90;;;;;;5014490;28;20045;-72
2024/01/29 06:36:32;;;;;;;5.95;3.63;;;3.10;99.90;;;;;;5064943;28;20060;-72
2024/01/29 06:38:58;;;;;;;4.85;2.55;;;3.10;99.90;;;;;;5064715;28;20044;-72
2024/01/29 06:41:25;;;;;;;3.35;1.95;;;3.10;99.90;;;;;;5053000;28;20064;-72
2024/01/29 06:43:52;;;;;;;7.90;2.92;;;3.10;99.90;;;;;;5066644;28;20052;-72
2024/01/29 06:46:18;;;;;;;4.60;1.98;;;3.10;99.90;;;;;;5071470;28;20044;-72
2024/01/29 06:48:44;;;;;;;3.97;2.90;;;3.20;99.90;;;;;;5039398;28;20056;-72
2024/01/29 06:51:10;;;;;;;4.60;2.75;;;3.20;99.90;;;;;;5057348;28;20554;-72
2024/01/29 06:53:36;;;;;;;5.57;2.22;;;3.20;99.90;;;;;;5039385;28;20045;-72
2024/01/29 06:56:05;;;;;;;5.72;2.60;;;3.10;99.90;;;;;;5074169;28;20051;-72
2024/01/29 06:58:32;;;;;;;6.78;2.65;;;3.10;99.90;;;;;;5051653;28;20052;-72
2024/01/29 07:01:01;;;;;;;3.67;2.47;;;3.10;99.90;;;;;;5076369;28;20037;-72
2024/01/29 07:03:27;;;;;;;3.72;2.75;;;3.10;99.90;;;;;;5052149;28;20040;-73
2024/01/29 07:05:53;;;;;;;4.20;2.58;;;3.10;99.90;;;;;;5043364;28;20137;-73
2024/01/29 07:08:18;;;;;;;3.47;2.20;;;3.10;99.90;;;;;;5060246;28;20052;-72
2024/01/29 07:10:44;;;;;;;2.80;2.08;;;3.10;99.90;;;;;;5046164;28;20105;-72
2024/01/29 07:13:10;;;;;;;3.92;1.88;;;3.10;99.90;;;;;;5060939;28;20052;-72
2024/01/29 07:15:36;;;;;;;5.82;2.50;;;3.20;99.90;;;;;;5047797;28;20056;-73
2024/01/29 07:18:02;;;;;;;8.00;2.47;;;3.10;99.90;;;;;;5015199;28;20044;-72
2024/01/29 07:20:29;;;;;;;3.67;2.45;;;3.20;99.90;;;;;;5041352;28;20037;-72
2024/01/29 07:22:56;;;;;;;4.43;2.45;;;3.20;99.90;;;;;;5028103;28;20040;-73
2024/01/29 07:25:22;;;;;;;5.22;2.70;;;3.20;99.90;;;;;;5061901;28;20049;-73
2024/01/29 07:27:48;;;;;;;4.25;2.33;;;3.20;99.90;;;;;;5060294;28;20036;-72
2024/01/29 07:30:14;;;;;;;6.25;2.92;;;3.20;99.90;;;;;;5040578;28;20037;-72
2024/01/29 07:32:40;;;;;;;4.40;2.17;;;3.30;99.90;;;;;;5026670;28;20136;-73
2024/01/29 07:35:07;;;;;;;6.72;3.03;;;3.20;99.90;;;;;;5044335;28;20047;-72
2024/01/29 07:37:32;;;;;;;5.60;2.38;;;3.30;99.90;;;;;;5065159;28;20055;-73
2024/01/29 07:39:58;;;;;;;2.70;2.10;;;3.30;99.90;;;;;;5062002;28;20092;-73
2024/01/29 07:42:24;;;;;;;4.95;3.08;;;3.30;99.90;;;;;;5069490;28;20104;-73
2024/01/29 07:44:51;;;;;;;7.78;2.78;;;3.40;99.90;;;;;;5088061;28;20144;-72
2024/01/29 07:47:17;;;;;;;5.35;2.92;;;3.40;99.90;;;;;;5067922;28;20053;-73
2024/01/29 07:49:43;;;;;;;8.88;2.80;;;3.50;99.90;;;;;;5061657;28;20052;-72
2024/01/29 07:52:09;;;;;;;5.78;2.60;;;3.60;99.90;;;;;;5069815;28;20476;-73
2024/01/29 07:54:35;;;;;;;6.90;2.88;;;3.60;99.90;;;;;;5057264;28;20421;-72
2024/01/29 07:57:03;;;;;;;5.00;2.90;;;3.60;99.90;;;;;;5039770;28;20036;-73
2024/01/29 07:59:29;;;;;;;3.22;2.00;;;3.70;99.90;;;;;;5038351;28;20055;-72
2024/01/29 08:01:55;;;;;;;4.75;2.42;;;3.80;99.90;;;;;;5067646;28;20386;-72
2024/01/29 08:04:21;;;;;;;8.15;1.80;;;3.80;99.90;;;;;;5039294;28;20041;-72
2024/01/29 08:06:46;;;;;;;3.92;2.50;;;3.90;99.90;;;;;;5039775;28;20057;-72
2024/01/29 08:09:12;;;;;;;6.53;2.92;;;4.00;99.90;;;;;;5039374;28;20080;-72
2024/01/29 08:11:38;;;;;;;2.47;1.88;;;4.00;99.90;;;;;;5072587;28;20025;-72
2024/01/29 08:14:03;;;;;;;5.85;2.25;;;4.10;99.90;;;;;;5054910;28;20041;-72
2024/01/29 08:16:29;;;;;;;2.42;2.22;;;4.20;99.90;;;;;;5052807;28;20049;-72
2024/01/29 08:18:56;;;;;;;7.25;3.47;;;4.20;99.90;;;;;;5038650;28;20037;-72
2024/01/29 08:21:22;;;;;;;8.30;3.05;;;4.30;99.90;;;;;;5055035;28;20412;-72
2024/01/29 08:23:48;;;;;;;7.90;3.50;;;4.30;99.90;;;;;;5052224;28;20292;-72
2024/01/29 08:26:13;;;;;;;5.00;2.63;;;4.40;99.90;;;;;;5054794;28;20148;-72
2024/01/29 08:28:39;;;;;;;5.70;2.60;;;4.40;99.90;;;;;;5066243;28;20037;-71
2024/01/29 08:31:06;;;;;;;4.28;2.70;;;4.50;99.90;;;;;;5052816;28;20064;-72
2024/01/29 08:33:32;;;;;;;4.78;2.85;;;4.70;99.90;;;;;;5022782;28;20053;-72
2024/01/29 08:35:58;;;;;;;6.43;2.88;;;4.80;99.90;;;;;;5028728;28;20040;-71
2024/01/29 08:38:24;;;;;;;5.07;2.92;;;4.90;99.90;;;;;;5054312;28;20044;-72
2024/01/29 08:40:50;;;;;;;7.15;2.65;;;5.10;99.90;;;;;;5018725;28;20470;-72
2024/01/29 08:43:16;;;;;;;5.53;3.40;;;5.10;99.90;;;;;;5022330;28;20048;-72
2024/01/29 08:45:42;;;;;;;5.38;2.85;;;5.20;99.90;;;;;;5041006;28;20072;-71
2024/01/29 08:48:08;;;;;;;6.07;2.45;;;5.30;99.90;;;;;;5040478;28;20049;-72
2024/01/29 08:50:34;;;;;;;3.58;2.88;;;5.40;99.90;;;;;;5053925;28;20037;-72
2024/01/29 08:53:00;;;;;;;6.57;3.67;;;5.50;99.90;;;;;;5038652;28;20045;-72
2024/01/29 08:55:26;;;;;;;4.30;2.78;;;5.50;99.90;;;;;;5057035;28;20060;-72
2024/01/29 08:57:52;;;;;;;5.13;2.75;;;5.60;99.90;;;;;;5043714;28;20048;-72
2024/01/29 09:00:18;;;;;;;4.78;2.83;;;5.60;99.90;;;;;;5065376;28;20081;-72
2024/01/29 09:02:45;;;;;;;11.32;3.00;;;5.60;99.90;;;;;;5084056;28;20032;-72
2024/01/29 09:05:11;;;;;;;4.82;3.00;;;5.70;99.90;;;;;;5032033;28;20095;-72
2024/01/29 09:07:36;;;;;;;5.03;3.20;;;5.70;99.90;;;;;;5059477;28;20466;-71
2024/01/29 09:10:03;;;;;;;7.10;3.13;;;5.70;99.90;;;;;;5053125;28;20053;-72
2024/01/29 09:12:29;;;;;;;6.30;3.00;;;5.70;99.90;;;;;;5043100;28;20054;-72
2024/01/29 09:14:54;;;;;;;5.45;2.75;;;5.80;99.90;;;;;;5037075;28;20106;-72
2024/01/29 09:17:20;;;;;;;3.40;2.40;;;5.90;99.90;;;;;;5038510;28;20143;-72
2024/01/29 09:19:46;;;;;;;5.57;2.97;;;6.00;99.90;;;;;;5033494;28;20048;-72
2024/01/29 09:22:12;;;;;;;7.40;3.05;;;6.20;99.90;;;;;;5042494;28;20056;-72
2024/01/29 09:24:38;;;;;;;5.97;2.92;;;6.20;99.90;;;;;;5063911;28;20049;-72
2024/01/29 09:27:04;;;;;;;8.45;3.65;;;6.30;99.90;;;;;;5060961;28;20104;-73
2024/01/29 09:29:29;;;;;;;7.93;3.22;;;6.40;99.90;;;;;;5067929;28;20047;-72
2024/01/29 09:31:55;;;;;;;5.25;3.10;;;6.50;99.90;;;;;;5042045;28;20053;-72
2024/01/29 09:34:22;;;;;;;5.03;2.70;;;6.60;99.90;;;;;;5044001;28;20071;-72
2024/01/29 09:36:48;;;;;;;6.13;2.88;;;6.80;99.90;;;;;;5067229;28;20045;-72
2024/01/29 09:39:13;;;;;;;8.93;3.92;;;7.00;99.90;;;;;;5057420;28;20070;-72
2024/01/29 09:41:39;;;;;;;6.25;3.38;;;7.20;99.90;;;;;;5064218;28;20111;-72
2024/01/29 09:44:06;;;;;;;5.35;3.03;;;7.50;99.90;;;;;;5087891;28;20039;-72
2024/01/29 09:46:37;;;;;;;7.22;3.50;;;7.80;99.90;;;;;;5097107;28;20052;-72
2024/01/29 09:49:04;;;;;;;5.90;3.30;;;8.00;99.90;;;;;;5053825;28;20056;-72
2024/01/29 09:51:32;;;;;;;5.15;3.15;;;8.30;99.90;;;;;;5076668;28;20074;-72
2024/01/29 09:53:59;;;;;;;10.23;4.80;;;8.60;99.90;;;;;;5071432;28;20051;-72
2024/01/29 09:56:24;;;;;;;8.00;3.40;;;8.70;99.90;;;;;;5080705;28;20080;-72
2024/01/29 09:58:50;;;;;;;6.95;3.13;;;8.90;99.90;;;;;;5064253;28;20097;-72
2024/01/29 10:01:18;;;;;;;8.43;3.95;;;9.00;99.90;;;;;;5064149;28;20036;-72
2024/01/29 10:03:44;;;;;;;7.38;4.47;;;9.00;99.90;;;;;;5050765;28;20492;-72
2024/01/29 10:06:11;;;;;;;5.30;3.33;;;9.10;99.90;;;;;;5097804;28;20078;-72
2024/01/29 10:08:37;;;;;;;7.07;3.80;;;9.10;99.90;;;;;;5057904;28;20071;-73
2024/01/29 10:11:03;;;;;;;6.32;4.20;;;9.20;99.90;;;;;;5063151;28;20036;-72
2024/01/29 10:13:29;;;;;;;10.25;3.83;;;9.20;99.90;;;;;;5096211;28;20076;-72
2024/01/29 10:15:56;;;;;;;9.85;4.50;;;9.10;99.90;;;;;;5058328;28;20044;-72
2024/01/29 10:18:22;;;;;;;6.18;3.80;;;9.10;99.90;;;;;;5062596;28;20045;-72
2024/01/29 10:20:58;;;;;;;5.20;3.42;;;8.90;99.90;;;;;;5052200;28;20052;-72
2024/01/29 10:23:23;;;;;;;5.80;3.22;;;8.80;99.90;;;;;;5080572;28;20112;-72
2024/01/29 10:25:55;;;;;;;9.55;4.20;;;8.50;99.90;;;;;;5029813;28;20110;-72
2024/01/29 10:28:22;;;;;;;6.47;3.83;;;8.30;99.90;;;;;;5090015;28;20044;-72
2024/01/29 10:30:48;;;;;;;9.05;3.83;;;8.10;99.90;;;;;;5031599;28;20124;-72
2024/01/29 10:33:14;;;;;;;6.25;3.35;;;8.00;99.90;;;;;;5060197;28;20052;-72
2024/01/29 10:35:40;;;;;;;7.78;3.65;;;7.90;99.90;;;;;;5050158;28;20053;-72
2024/01/29 10:38:06;;;;;;;9.65;3.92;;;7.80;99.90;;;;;;5062380;28;20056;-73
2024/01/29 10:40:33;;;;;;;6.53;3.25;;;7.70;99.90;;;;;;5087573;28;20052;-72
2024/01/29 10:43:00;;;;;;;8.73;3.78;;;7.80;99.90;;;;;;5044595;28;20059;-72
2024/01/29 10:45:27;;;;;;;8.82;3.78;;;7.80;99.90;;;;;;5088110;28;20047;-72
2024/01/29 10:48:12;;;;;;;7.95;3.85;;;7.80;99.90;;;;;;5057418;28;20048;-72
2024/01/29 10:50:38;;;;;;;9.68;3.95;;;7.80;99.90;;;;;;5068506;28;20462;-71
2024/01/29 10:53:05;;;;;;;5.95;3.75;;;7.90;99.90;;;;;;5070430;28;20037;-71
2024/01/29 10:55:32;;;;;;;8.45;4.40;;;7.90;99.90;;;;;;5058966;28;20044;-72
2024/01/29 10:58:01;;;;;;;7.82;4.18;;;8.00;99.90;;;;;;5069148;28;20048;-71
2024/01/29 11:00:28;;;;;;;9.05;4.75;;;8.00;99.90;;;;;;5030977;28;20044;-71
2024/01/29 11:02:57;;;;;;;8.90;4.60;;;8.10;99.90;;;;;;5067584;28;20045;-71
2024/01/29 11:05:24;;;;;;;8.40;4.07;;;8.20;99.90;;;;;;5062724;28;20040;-71
2024/01/29 11:07:52;;;;;;;9.00;4.53;;;8.30;99.90;;;;;;5034923;28;20064;-71
2024/01/29 11:10:21;;;;;;;10.00;4.00;;;8.30;99.90;;;;;;5059669;28;20045;-72
2024/01/29 11:12:48;;;;;;;14.98;4.75;;;8.40;99.90;;;;;;5049425;28;20055;-72
2024/01/29 11:15:14;;;;;;;8.02;4.45;;;8.50;99.90;;;;;;5096130;28;20043;-72
2024/01/29 11:17:41;;;;;;;8.45;4.97;;;8.50;99.90;;;;;;5069867;28;20040;-72
2024/01/29 11:20:13;;;;;;;7.68;4.22;;;8.60;99.90;;;;;;5079176;28;20048;-72
2024/01/29 11:22:40;;;;;;;8.88;3.90;;;8.60;99.90;;;;;;5058468;28;20049;-72
2024/01/29 11:25:16;;;;;;;8.15;3.88;;;8.60;99.90;;;;;;5061867;28;20094;-73
2024/01/29 11:27:43;;;;;;;9.25;4.28;;;8.70;99.90;;;;;;5071065;28;20050;-73
2024/01/29 11:30:19;;;;;;;8.18;4.90;;;8.70;99.90;;;;;;5031035;28;20037;-72
2024/01/29 11:32:49;;;;;;;9.02;4.32;;;8.80;99.90;;;;;;5056305;28;20048;-73
2024/01/29 11:35:23;;;;;;;7.63;3.83;;;8.80;99.90;;;;;;5077228;28;20044;-72
2024/01/29 11:37:54;;;;;;;9.60;4.72;;;8.90;99.90;;;;;;5041302;28;20053;-73
2024/01/29 11:40:33;;;;;;;9.48;4.70;;;8.90;99.90;;;;;;5077944;28;20046;-73
2024/01/29 11:43:04;;;;;;;13.25;4.72;;;9.10;99.90;;;;;;5069097;28;20053;-73
2024/01/29 11:45:30;;;;;;;8.77;5.63;;;9.30;99.90;;;;;;5041893;28;20427;-73
2024/01/29 11:47:56;;;;;;;8.40;4.57;;;9.30;99.90;;;;;;5043103;28;20059;-73
2024/01/29 11:50:24;;;;;;;8.77;4.32;;;9.40;99.90;;;;;;5048268;28;20119;-73
2024/01/29 11:52:50;;;;;;;8.18;4.05;;;9.40;99.90;;;;;;5055937;28;20053;-73
2024/01/29 11:55:23;;;;;;;7.55;4.32;;;9.40;99.90;;;;;;5059187;28;20045;-73
2024/01/29 11:57:53;;;;;;;13.93;6.43;;;9.30;99.90;;;;;;5034314;28;20032;-73
2024/01/29 12:00:19;;;;;;;25.52;5.90;;;9.30;99.90;;;;;;5092486;28;20870;-73
2024/01/29 12:02:48;;;;;;;8.85;4.35;;;9.30;99.90;;;;;;5090574;28;20051;-72
2024/01/29 12:05:19;;;;;;;10.95;5.13;;;9.20;99.90;;;;;;5053378;28;20101;-71
2024/01/29 12:07:48;;;;;;;11.18;5.25;;;9.20;99.90;;;;;;5044135;28;20052;-73
2024/01/29 12:10:15;;;;;;;9.93;5.32;;;9.20;99.90;;;;;;5071247;28;20101;-73
2024/01/29 12:12:41;;;;;;;8.35;4.63;;;9.20;99.90;;;;;;5074199;28;20045;-73
2024/01/29 12:15:10;;;;;;;6.38;3.85;;;9.20;99.90;;;;;;5059792;28;20435;-73
2024/01/29 12:17:39;;;;;;;8.25;5.00;;;9.30;99.90;;;;;;5062929;28;20413;-73
2024/01/29 12:20:05;;;;;;;10.90;4.90;;;9.40;99.90;;;;;;5077900;28;20070;-73
2024/01/29 12:22:32;;;;;;;9.75;4.88;;;9.40;99.90;;;;;;5094341;28;20139;-73
2024/01/29 12:24:59;;;;;;;8.68;4.55;;;9.40;99.90;;;;;;5039746;28;20526;-73
2024/01/29 12:27:24;;;;;;;9.13;4.90;;;9.50;99.90;;;;;;5072142;28;20052;-73
2024/01/29 12:29:51;;;;;;;11.05;4.75;;;9.60;99.90;;;;;;5032761;28;20120;-73
2024/01/29 12:32:20;;;;;;;10.30;4.60;;;9.60;99.90;;;;;;5062511;28;20064;-73
2024/01/29 12:34:50;;;;;;;13.40;6.43;;;9.70;99.90;;;;;;5064869;28;20090;-73
2024/01/29 12:37:25;;;;;;;8.93;5.45;;;9.70;99.90;;;;;;5040896;28;20114;-73
2024/01/29 12:39:55;;;;;;;10.95;4.65;;;9.60;99.90;;;;;;5074659;28;20424;-73
2024/01/29 12:42:22;;;;;;;8.10;4.75;;;9.70;99.90;;;;;;5067666;28;20612;-73
2024/01/29 12:44:50;;;;;;;10.82;4.63;;;9.70;99.90;;;;;;5086503;28;20036;-73
2024/01/29 12:47:18;;;;;;;11.23;5.45;;;9.70;99.90;;;;;;5086995;28;20076;-73
2024/01/29 12:49:46;;;;;;;10.02;4.75;;;9.70;99.90;;;;;;5059484;28;20383;-73
2024/01/29 12:52:12;;;;;;;10.88;4.68;;;9.80;99.90;;;;;;5066126;28;20461;-73